createdAt,value
2022-11-13T00:00:35.307Z,83.39
2022-11-13T00:03:14.636Z,83.46
2022-11-13T00:06:00.267Z,83.17
2022-11-13T00:08:39.834Z,83.52
2022-11-13T00:11:20.373Z,83.47
2022-11-13T00:13:59.944Z,83.70
2022-11-13T00:16:40.824Z,83.42
2022-11-13T00:19:23.144Z,83.58
2022-11-13T00:22:02.635Z,83.63
2022-11-13T00:24:41.888Z,83.52
2022-11-13T00:27:21.336Z,83.64
2022-11-13T00:30:00.620Z,83.82
2022-11-13T00:32:41.639Z,83.87
2022-11-13T00:35:21.199Z,83.88
2022-11-13T00:38:00.856Z,83.76
2022-11-13T00:40:40.258Z,83.83
2022-11-13T00:43:19.820Z,84.15
2022-11-13T00:45:59.067Z,84.05
2022-11-13T00:48:39.935Z,84.14
2022-11-13T00:51:19.827Z,84.34
2022-11-13T00:53:59.260Z,83.96
2022-11-13T00:56:38.907Z,84.16
2022-11-13T00:59:18.642Z,84.20
2022-11-13T01:01:58.251Z,84.04
2022-11-13T01:04:39.482Z,84.42
2022-11-13T01:07:18.779Z,83.96
2022-11-13T01:09:58.367Z,84.39
2022-11-13T01:12:38.347Z,84.70
2022-11-13T01:15:17.627Z,84.19
2022-11-13T01:17:56.299Z,84.39
2022-11-13T01:20:37.372Z,84.63
2022-11-13T01:23:16.607Z,84.76
2022-11-13T01:25:55.115Z,84.70
2022-11-13T01:28:34.400Z,84.71
2022-11-13T01:31:14.715Z,84.46
2022-11-13T01:33:53.331Z,84.50
2022-11-13T01:36:34.616Z,84.59
2022-11-13T01:39:12.990Z,84.66
2022-11-13T01:41:52.720Z,84.67
2022-11-13T01:44:48.204Z,84.73
2022-11-13T01:47:27.987Z,85.00
2022-11-13T01:50:11.647Z,84.82
2022-11-13T01:52:52.482Z,84.81
2022-11-13T01:55:31.168Z,84.87
2022-11-13T01:58:11.463Z,84.93
2022-11-13T02:00:51.011Z,84.57
2022-11-13T02:03:30.557Z,84.72
2022-11-13T02:06:10.091Z,84.91
2022-11-13T02:08:52.042Z,84.91
2022-11-13T02:11:31.367Z,84.95
2022-11-13T02:14:11.921Z,84.87
2022-11-13T02:16:53.380Z,84.73
2022-11-13T02:19:34.462Z,84.91
2022-11-13T02:22:18.970Z,84.70
2022-11-13T02:25:01.435Z,84.62
2022-11-13T02:27:42.825Z,84.60
2022-11-13T02:30:27.257Z,84.56
2022-11-13T02:33:20.883Z,84.83
2022-11-13T02:36:00.682Z,84.52
2022-11-13T02:38:40.105Z,84.59
2022-11-13T02:41:20.882Z,84.64
2022-11-13T02:44:00.251Z,84.58
2022-11-13T02:46:39.580Z,84.48
2022-11-13T02:49:18.720Z,84.42
2022-11-13T02:51:58.192Z,84.22
2022-11-13T02:54:37.610Z,84.35
2022-11-13T02:57:17.529Z,84.22
2022-11-13T02:59:56.893Z,83.86
2022-11-13T03:02:36.655Z,84.16
2022-11-13T03:05:15.962Z,84.33
2022-11-13T03:07:55.911Z,84.38
2022-11-13T03:10:35.230Z,84.08
2022-11-13T03:13:15.802Z,84.51
2022-11-13T03:15:55.352Z,84.32
2022-11-13T03:18:34.762Z,84.53
2022-11-13T03:21:15.222Z,84.24
2022-11-13T03:23:54.968Z,84.44
2022-11-13T03:26:34.836Z,84.47
2022-11-13T03:29:16.076Z,84.51
2022-11-13T03:31:55.636Z,84.45
2022-11-13T03:34:33.976Z,84.35
2022-11-13T03:37:13.422Z,84.44
2022-11-13T03:39:52.814Z,84.54
2022-11-13T03:42:32.135Z,84.71
2022-11-13T03:45:13.175Z,84.97
2022-11-13T03:47:52.397Z,84.76
2022-11-13T03:50:32.053Z,85.08
2022-11-13T03:53:11.329Z,85.31
2022-11-13T03:55:50.854Z,85.52
2022-11-13T03:58:30.315Z,85.46
2022-11-13T04:01:12.518Z,85.52
2022-11-13T04:03:51.296Z,85.53
2022-11-13T04:06:30.537Z,85.64
2022-11-13T04:09:09.056Z,86.01
2022-11-13T04:11:48.598Z,86.03
2022-11-13T04:14:28.035Z,85.59
2022-11-13T04:17:08.935Z,86.12
2022-11-13T04:19:48.292Z,86.02
2022-11-13T04:22:27.784Z,85.92
2022-11-13T04:25:07.586Z,85.67
2022-11-13T04:27:47.418Z,86.09
2022-11-13T04:30:27.034Z,86.52
2022-11-13T04:33:07.971Z,86.35
2022-11-13T04:35:48.882Z,86.74
2022-11-13T04:38:28.689Z,86.13
2022-11-13T04:41:17.113Z,86.72
2022-11-13T04:43:56.935Z,86.67
2022-11-13T04:46:36.503Z,86.70
2022-11-13T04:49:17.227Z,86.68
2022-11-13T04:51:56.752Z,86.91
2022-11-13T04:54:36.132Z,86.72
2022-11-13T04:57:15.977Z,86.41
2022-11-13T04:59:55.644Z,86.61
2022-11-13T05:02:34.885Z,86.89
2022-11-13T05:05:15.553Z,87.24
2022-11-13T05:07:54.066Z,86.78
2022-11-13T05:10:34.571Z,86.77
2022-11-13T05:13:12.976Z,86.85
2022-11-13T05:15:52.644Z,87.05
2022-11-13T05:18:33.815Z,87.26
2022-11-13T05:21:14.653Z,87.28
2022-11-13T05:23:54.103Z,86.63
2022-11-13T05:26:33.780Z,87.05
2022-11-13T05:29:12.933Z,87.05
2022-11-13T05:31:52.396Z,87.37
2022-11-13T05:34:31.875Z,87.22
2022-11-13T05:37:12.717Z,87.01
2022-11-13T05:39:52.144Z,87.07
2022-11-13T05:42:31.506Z,87.14
2022-11-13T05:45:11.905Z,87.26
2022-11-13T05:47:51.424Z,87.48
2022-11-13T05:50:32.027Z,87.41
2022-11-13T05:53:13.287Z,86.66
2022-11-13T05:55:52.577Z,87.22
2022-11-13T05:58:32.576Z,87.01
2022-11-13T06:01:12.074Z,86.86
2022-11-13T06:03:51.588Z,87.09
2022-11-13T06:06:31.007Z,86.90
2022-11-13T06:09:17.372Z,86.60
2022-11-13T06:11:56.674Z,86.83
2022-11-13T06:14:36.052Z,86.10
2022-11-13T06:17:15.193Z,86.47
2022-11-13T06:19:54.673Z,86.15
2022-11-13T06:22:34.052Z,85.83
2022-11-13T06:25:14.583Z,86.36
2022-11-13T06:27:54.215Z,86.27
2022-11-13T06:30:33.444Z,86.61
2022-11-13T06:33:27.215Z,86.71
2022-11-13T06:36:08.444Z,86.97
2022-11-13T06:38:49.166Z,86.69
2022-11-13T06:41:31.684Z,86.88
2022-11-13T06:44:09.953Z,87.37
2022-11-13T06:46:49.236Z,86.75
2022-11-13T06:49:30.037Z,86.99
2022-11-13T06:52:09.169Z,86.63
2022-11-13T06:54:48.560Z,86.71
2022-11-13T06:57:26.996Z,86.81
2022-11-13T07:00:08.118Z,87.29
2022-11-13T07:02:50.028Z,86.50
2022-11-13T07:05:30.829Z,86.97
2022-11-13T07:08:10.029Z,86.50
2022-11-13T07:10:54.119Z,86.71
2022-11-13T07:13:33.389Z,86.84
2022-11-13T07:16:17.380Z,86.06
2022-11-13T07:18:57.150Z,86.73
2022-11-13T07:21:37.971Z,85.73
2022-11-13T07:24:17.851Z,86.20
2022-11-13T07:26:57.176Z,85.42
2022-11-13T07:29:39.501Z,85.51
2022-11-13T07:32:17.752Z,85.40
2022-11-13T07:34:57.004Z,85.21
2022-11-13T07:37:38.157Z,85.24
2022-11-13T07:40:18.031Z,84.43
2022-11-13T07:42:58.163Z,84.74
2022-11-13T07:45:37.342Z,83.67
2022-11-13T07:48:15.718Z,83.99
2022-11-13T07:50:55.734Z,84.06
2022-11-13T07:53:39.351Z,83.87
2022-11-13T07:56:23.170Z,84.24
2022-11-13T07:59:02.619Z,83.37
2022-11-13T08:01:40.862Z,83.11
2022-11-13T08:04:20.297Z,83.75
2022-11-13T08:06:59.879Z,83.43
2022-11-13T08:09:40.683Z,83.50
2022-11-13T08:12:20.006Z,83.03
2022-11-13T08:14:58.643Z,82.51
2022-11-13T08:17:37.222Z,82.63
2022-11-13T08:20:16.563Z,82.24
2022-11-13T08:22:58.243Z,82.17
2022-11-13T08:25:38.855Z,82.18
2022-11-13T08:28:18.006Z,81.43
2022-11-13T08:30:57.366Z,81.85
2022-11-13T08:33:36.746Z,81.52
2022-11-13T08:36:16.024Z,81.31
2022-11-13T08:38:55.495Z,81.21
2022-11-13T08:41:35.257Z,80.87
2022-11-13T08:44:15.055Z,80.86
2022-11-13T08:46:54.226Z,80.48
2022-11-13T08:49:34.397Z,80.47
2022-11-13T08:52:13.722Z,80.51
2022-11-13T08:54:53.173Z,80.19
2022-11-13T08:57:33.758Z,79.98
2022-11-13T09:00:13.580Z,79.53
2022-11-13T09:02:55.179Z,79.25
2022-11-13T09:05:34.835Z,79.47
2022-11-13T09:08:14.020Z,78.69
2022-11-13T09:10:53.430Z,78.57
2022-11-13T09:13:35.831Z,78.39
2022-11-13T09:16:18.376Z,77.93
2022-11-13T09:18:57.721Z,77.79
2022-11-13T09:21:37.101Z,77.45
2022-11-13T09:24:16.305Z,77.10
2022-11-13T09:26:55.575Z,76.97
2022-11-13T09:29:36.395Z,76.90
2022-11-13T09:32:16.115Z,77.00
2022-11-13T09:34:55.235Z,76.76
2022-11-13T09:37:35.196Z,76.58
2022-11-13T09:40:18.089Z,76.24
2022-11-13T09:42:57.884Z,75.75
2022-11-13T09:45:40.461Z,75.53
2022-11-13T09:48:27.049Z,75.67
2022-11-13T09:51:08.520Z,75.44
2022-11-13T09:53:48.730Z,74.54
2022-11-13T09:56:29.150Z,74.33
2022-11-13T09:59:16.808Z,74.71
2022-11-13T10:02:03.643Z,73.71
2022-11-13T10:04:51.509Z,73.90
2022-11-13T10:07:37.251Z,73.28
2022-11-13T10:10:35.410Z,73.69
2022-11-13T10:13:17.052Z,72.92
2022-11-13T10:16:03.999Z,72.63
2022-11-13T10:18:46.110Z,72.34
2022-11-13T10:21:30.964Z,71.70
2022-11-13T10:24:15.405Z,71.39
2022-11-13T10:26:57.024Z,71.05
2022-11-13T10:29:36.629Z,70.98
2022-11-13T10:32:20.109Z,70.19
2022-11-13T10:35:01.914Z,70.02
2022-11-13T10:37:50.259Z,69.57
2022-11-13T10:40:30.595Z,69.46
2022-11-13T10:43:15.687Z,69.26
2022-11-13T10:45:56.157Z,68.74
2022-11-13T10:48:36.335Z,68.52
2022-11-13T10:51:24.564Z,68.21
2022-11-13T10:54:17.713Z,67.68
2022-11-13T10:57:01.113Z,67.08
2022-11-13T10:59:41.205Z,66.89
2022-11-13T11:02:21.364Z,66.61
2022-11-13T11:05:05.695Z,65.82
2022-11-13T11:07:45.536Z,66.11
2022-11-13T11:10:27.924Z,66.41
2022-11-13T11:13:10.785Z,65.79
2022-11-13T11:15:52.400Z,66.02
2022-11-13T11:18:36.219Z,65.66
2022-11-13T11:21:17.569Z,64.96
2022-11-13T11:23:59.070Z,64.45
2022-11-13T11:26:41.049Z,64.08
2022-11-13T11:29:23.170Z,63.68
2022-11-13T11:32:06.811Z,63.50
2022-11-13T11:34:48.160Z,62.85
2022-11-13T11:37:31.811Z,62.95
2022-11-13T11:40:18.774Z,62.62
2022-11-13T11:43:02.750Z,62.09
2022-11-13T11:45:42.225Z,61.99
2022-11-13T11:48:22.877Z,61.39
2022-11-13T11:51:05.330Z,60.86
2022-11-13T11:53:49.299Z,60.33
2022-11-13T11:56:35.214Z,60.10
2022-11-13T11:59:21.474Z,60.70
2022-11-13T12:02:25.754Z,60.23
2022-11-13T12:05:19.547Z,60.42
2022-11-13T12:08:14.784Z,60.48
2022-11-13T12:10:58.926Z,60.25
2022-11-13T12:13:43.474Z,60.45
2022-11-13T12:16:25.706Z,60.10
2022-11-13T12:19:07.613Z,60.05
2022-11-13T12:21:53.834Z,59.59
2022-11-13T12:24:43.735Z,59.46
2022-11-13T12:27:27.061Z,59.49
2022-11-13T12:30:14.252Z,59.16
2022-11-13T12:33:04.379Z,59.44
2022-11-13T12:35:46.222Z,59.70
2022-11-13T12:38:36.340Z,60.19
2022-11-13T12:41:19.775Z,60.16
2022-11-13T12:44:05.201Z,60.48
2022-11-13T12:46:46.190Z,60.37
2022-11-13T12:49:32.284Z,59.52
2022-11-13T12:52:20.840Z,59.66
2022-11-13T12:55:07.521Z,60.38
2022-11-13T12:57:48.814Z,59.87
2022-11-13T13:00:31.577Z,60.18
2022-11-13T13:03:21.843Z,59.93
2022-11-13T13:06:11.321Z,59.42
2022-11-13T13:08:58.378Z,59.49
2022-11-13T13:11:40.699Z,59.58
2022-11-13T13:14:25.890Z,60.06
2022-11-13T13:17:18.200Z,60.22
2022-11-13T13:20:03.019Z,61.17
2022-11-13T13:22:42.339Z,61.84
2022-11-13T13:25:26.442Z,62.65
2022-11-13T13:28:19.912Z,62.59
2022-11-13T13:31:05.120Z,62.92
2022-11-13T13:33:51.534Z,63.22
2022-11-13T13:36:36.874Z,63.53
2022-11-13T13:39:26.197Z,64.26
2022-11-13T13:42:13.205Z,64.46
2022-11-13T13:45:01.274Z,65.35
2022-11-13T13:47:42.004Z,66.14
2022-11-13T13:50:23.064Z,66.12
2022-11-13T13:53:04.246Z,67.15
2022-11-13T13:55:47.167Z,67.37
2022-11-13T13:58:28.785Z,67.93
2022-11-13T14:01:18.998Z,68.17
2022-11-13T14:04:07.187Z,68.35
2022-11-13T14:06:51.324Z,68.57
2022-11-13T14:09:32.095Z,68.89
2022-11-13T14:12:18.722Z,69.11
2022-11-13T14:14:58.061Z,69.62
2022-11-13T14:17:39.451Z,70.06
2022-11-13T14:20:19.812Z,70.74
2022-11-13T14:23:02.090Z,71.07
2022-11-13T14:25:43.432Z,71.27
2022-11-13T14:28:22.630Z,71.43
2022-11-13T14:31:03.978Z,71.70
2022-11-13T14:33:44.980Z,71.79
2022-11-13T14:36:27.756Z,72.35
2022-11-13T14:39:07.016Z,72.57
2022-11-13T14:41:51.656Z,72.99
2022-11-13T14:44:32.533Z,73.03
2022-11-13T14:47:22.176Z,73.28
2022-11-13T14:50:10.451Z,73.61
2022-11-13T14:52:57.792Z,73.75
2022-11-13T14:55:38.791Z,73.92
2022-11-13T14:58:29.009Z,73.97
2022-11-13T15:01:16.557Z,73.93
2022-11-13T15:03:54.996Z,74.48
2022-11-13T15:06:38.641Z,75.04
2022-11-13T15:09:18.621Z,75.50
2022-11-13T15:11:58.123Z,75.27
2022-11-13T15:14:41.082Z,75.60
2022-11-13T15:17:21.212Z,75.56
2022-11-13T15:20:04.127Z,75.62
2022-11-13T15:22:46.576Z,75.58
2022-11-13T15:25:26.435Z,75.61
2022-11-13T15:28:05.925Z,76.08
2022-11-13T15:30:46.648Z,75.62
2022-11-13T15:33:26.019Z,76.21
2022-11-13T15:36:05.436Z,76.23
2022-11-13T15:38:45.141Z,76.65
2022-11-13T15:41:25.995Z,76.35
2022-11-13T15:44:08.809Z,76.85
2022-11-13T15:46:49.554Z,76.87
2022-11-13T15:49:27.885Z,77.50
2022-11-13T15:52:07.844Z,77.36
2022-11-13T15:54:48.578Z,78.07
2022-11-13T15:57:28.775Z,77.90
2022-11-13T16:00:11.775Z,78.15
2022-11-13T16:02:54.986Z,77.82
2022-11-13T16:05:34.159Z,78.20
2022-11-13T16:08:13.789Z,77.87
2022-11-13T16:10:54.686Z,78.08
2022-11-13T16:13:33.912Z,79.18
2022-11-13T16:16:16.433Z,79.40
2022-11-13T16:19:00.164Z,79.59
2022-11-13T16:21:41.076Z,79.46
2022-11-13T16:24:23.963Z,79.30
2022-11-13T16:27:03.955Z,79.80
2022-11-13T16:29:43.194Z,79.59
2022-11-13T16:32:22.924Z,80.40
2022-11-13T16:35:03.541Z,80.25
2022-11-13T16:37:42.751Z,80.84
2022-11-13T16:40:24.324Z,80.75
2022-11-13T16:43:03.550Z,81.42
2022-11-13T16:45:44.971Z,81.10
2022-11-13T16:48:24.161Z,81.38
2022-11-13T16:51:04.834Z,81.41
2022-11-13T16:53:44.351Z,81.08
2022-11-13T16:56:28.301Z,81.35
2022-11-13T16:59:07.554Z,81.35
2022-11-13T17:01:47.300Z,80.76
2022-11-13T17:04:26.551Z,80.94
2022-11-13T17:07:07.434Z,81.23
2022-11-13T17:09:55.120Z,80.92
2022-11-13T17:12:43.760Z,80.91
2022-11-13T17:15:23.290Z,81.41
2022-11-13T17:18:03.048Z,81.04
2022-11-13T17:20:42.250Z,80.82
2022-11-13T17:23:22.981Z,80.86
2022-11-13T17:26:02.512Z,81.14
2022-11-13T17:28:40.798Z,81.32
2022-11-13T17:31:20.452Z,81.25
2022-11-13T17:34:00.619Z,80.42
2022-11-13T17:36:40.007Z,80.91
2022-11-13T17:39:20.763Z,81.37
2022-11-13T17:42:00.253Z,80.60
2022-11-13T17:44:39.690Z,80.97
2022-11-13T17:47:18.942Z,81.44
2022-11-13T17:50:03.924Z,80.86
2022-11-13T17:52:47.212Z,80.71
2022-11-13T17:55:28.242Z,80.76
2022-11-13T17:58:07.861Z,80.92
2022-11-13T18:00:47.331Z,81.55
2022-11-13T18:03:27.241Z,80.64
2022-11-13T18:06:06.473Z,80.41
2022-11-13T18:08:45.712Z,81.28
2022-11-13T18:11:26.721Z,80.95
2022-11-13T18:14:06.290Z,81.51
2022-11-13T18:16:45.642Z,81.02
2022-11-13T18:19:25.216Z,81.60
2022-11-13T18:22:04.541Z,81.40
2022-11-13T18:24:44.308Z,81.50
2022-11-13T18:27:25.193Z,81.09
2022-11-13T18:30:04.775Z,81.68
2022-11-13T18:32:44.191Z,81.04
2022-11-13T18:35:23.633Z,81.49
2022-11-13T18:38:03.452Z,81.65
2022-11-13T18:40:42.052Z,81.17
2022-11-13T18:43:22.955Z,81.60
2022-11-13T18:46:04.867Z,81.26
2022-11-13T18:48:44.802Z,81.81
2022-11-13T18:51:25.493Z,81.95
2022-11-13T18:54:09.495Z,81.91
2022-11-13T18:56:49.404Z,81.69
2022-11-13T18:59:30.983Z,81.86
2022-11-13T19:02:11.503Z,81.59
2022-11-13T19:04:51.044Z,82.08
2022-11-13T19:07:30.244Z,81.74
2022-11-13T19:10:09.744Z,82.19
2022-11-13T19:12:50.541Z,81.46
2022-11-13T19:15:31.654Z,82.09
2022-11-13T19:18:11.031Z,82.19
2022-11-13T19:20:51.035Z,82.29
2022-11-13T19:23:31.263Z,81.39
2022-11-13T19:26:12.960Z,81.95
2022-11-13T19:28:52.866Z,81.64
2022-11-13T19:31:34.752Z,81.56
2022-11-13T19:34:15.101Z,82.19
2022-11-13T19:36:54.715Z,81.88
2022-11-13T19:39:34.272Z,81.52
2022-11-13T19:42:13.852Z,81.79
2022-11-13T19:44:52.251Z,81.93
2022-11-13T19:47:33.232Z,81.91
2022-11-13T19:50:12.964Z,82.06
2022-11-13T19:52:52.370Z,82.22
2022-11-13T19:55:31.789Z,81.89
2022-11-13T19:58:11.082Z,81.85
2022-11-13T20:00:50.654Z,81.66
2022-11-13T20:03:30.580Z,81.42
2022-11-13T20:06:09.520Z,81.74
2022-11-13T20:08:47.722Z,81.75
2022-11-13T20:11:26.233Z,81.60
2022-11-13T20:14:05.763Z,81.46
2022-11-13T20:16:45.182Z,81.60
2022-11-13T20:19:26.160Z,81.48
2022-11-13T20:22:05.612Z,81.74
2022-11-13T20:24:44.163Z,81.79
2022-11-13T20:27:23.786Z,81.79
2022-11-13T20:30:03.504Z,82.01
2022-11-13T20:32:42.404Z,82.30
2022-11-13T20:35:23.331Z,82.10
2022-11-13T20:38:02.732Z,82.22
2022-11-13T20:40:42.595Z,82.16
2022-11-13T20:43:21.130Z,82.20
2022-11-13T20:46:03.806Z,82.21
2022-11-13T20:48:44.405Z,81.89
2022-11-13T20:51:26.860Z,82.73
2022-11-13T20:54:06.222Z,82.41
2022-11-13T20:56:45.669Z,82.28
2022-11-13T20:59:25.217Z,81.79
2022-11-13T21:02:04.876Z,81.94
2022-11-13T21:04:44.253Z,82.18
2022-11-13T21:07:24.423Z,81.81
2022-11-13T21:10:04.922Z,82.16
2022-11-13T21:12:44.164Z,81.68
2022-11-13T21:15:23.711Z,82.07
2022-11-13T21:18:03.675Z,81.79
2022-11-13T21:20:43.092Z,81.75
2022-11-13T21:23:24.441Z,81.66
2022-11-13T21:26:05.857Z,81.88
2022-11-13T21:28:45.212Z,81.68
2022-11-13T21:31:24.830Z,81.64
2022-11-13T21:34:04.383Z,81.52
2022-11-13T21:36:45.216Z,81.87
2022-11-13T21:39:26.180Z,81.93
2022-11-13T21:42:05.926Z,82.01
2022-11-13T21:44:45.482Z,81.32
2022-11-13T21:47:26.330Z,81.78
2022-11-13T21:50:05.740Z,81.81
2022-11-13T21:52:44.959Z,81.75
2022-11-13T21:55:26.081Z,81.46
2022-11-13T21:58:05.460Z,81.60
2022-11-13T22:00:45.110Z,81.61
2022-11-13T22:03:24.419Z,81.80
2022-11-13T22:06:15.333Z,81.65
2022-11-13T22:08:57.043Z,81.94
2022-11-13T22:11:37.831Z,82.45
2022-11-13T22:14:17.560Z,81.87
2022-11-13T22:16:57.252Z,81.59
2022-11-13T22:19:36.758Z,82.05
2022-11-13T22:22:16.312Z,82.23
2022-11-13T22:24:55.914Z,82.02
2022-11-13T22:27:36.831Z,82.26
2022-11-13T22:30:16.724Z,82.08
2022-11-13T22:32:56.791Z,82.41
2022-11-13T22:35:36.393Z,81.97
2022-11-13T22:38:16.843Z,82.13
2022-11-13T22:40:57.469Z,81.96
2022-11-13T22:43:38.531Z,82.24
2022-11-13T22:46:19.704Z,82.08
2022-11-13T22:49:01.903Z,82.45
2022-11-13T22:51:42.420Z,82.71
2022-11-13T22:54:21.953Z,82.77
2022-11-13T22:57:04.433Z,82.19
2022-11-13T22:59:44.404Z,82.44
2022-11-13T23:02:24.036Z,82.43
2022-11-13T23:05:03.552Z,82.51
2022-11-13T23:07:42.224Z,82.29
2022-11-13T23:10:25.724Z,82.50
2022-11-13T23:13:05.127Z,82.85
2022-11-13T23:15:46.111Z,83.08
2022-11-13T23:18:25.542Z,83.00
2022-11-13T23:21:06.954Z,82.71
2022-11-13T23:23:46.457Z,82.76
2022-11-13T23:26:25.607Z,83.17
2022-11-13T23:29:04.945Z,82.58
2022-11-13T23:31:45.662Z,82.80
2022-11-13T23:34:45.518Z,82.86
2022-11-13T23:37:23.972Z,82.83
2022-11-13T23:40:03.442Z,82.72
2022-11-13T23:42:54.781Z,82.77
2022-11-13T23:45:35.176Z,82.99
2022-11-13T23:48:16.041Z,82.83
2022-11-13T23:50:55.361Z,82.83
2022-11-13T23:53:34.721Z,83.32
2022-11-13T23:56:13.302Z,83.31
2022-11-13T23:58:53.182Z,83.47
